sensor_id;sensor_type;location;lat;lon;timestamp;pressure;altitude;pressure_sealevel;temperature;humidity
74079;BME280;62437;51.544;-3.276;2022-10-31T00:01:38;100797.39;;;12.66;55.33
74079;BME280;62437;51.544;-3.276;2022-10-31T00:04:02;100799.41;;;12.65;55.65
74079;BME280;62437;51.544;-3.276;2022-10-31T00:06:28;100799.69;;;12.63;55.74
74079;BME280;62437;51.544;-3.276;2022-10-31T00:08:55;100794.93;;;12.79;55.16
74079;BME280;62437;51.544;-3.276;2022-10-31T00:11:18;100798.00;;;12.66;54.74
74079;BME280;62437;51.544;-3.276;2022-10-31T00:13:43;100793.33;;;12.85;54.13
74079;BME280;62437;51.544;-3.276;2022-10-31T00:16:14;100791.73;;;12.57;54.82
74079;BME280;62437;51.544;-3.276;2022-10-31T00:18:35;100793.19;;;12.82;54.23
74079;BME280;62437;51.544;-3.276;2022-10-31T00:21:01;100786.28;;;12.88;54.02
74079;BME280;62437;51.544;-3.276;2022-10-31T00:23:26;100782.24;;;12.51;55.07
74079;BME280;62437;51.544;-3.276;2022-10-31T00:25:52;100793.25;;;12.54;54.84
74079;BME280;62437;51.544;-3.276;2022-10-31T00:28:18;100797.72;;;11.81;56.13
74079;BME280;62437;51.544;-3.276;2022-10-31T00:30:43;100795.53;;;12.12;55.63
74079;BME280;62437;51.544;-3.276;2022-10-31T00:33:09;100793.10;;;12.33;54.77
74079;BME280;62437;51.544;-3.276;2022-10-31T00:35:34;100792.32;;;12.24;54.93
74079;BME280;62437;51.544;-3.276;2022-10-31T00:38:00;100791.14;;;11.07;57.96
74079;BME280;62437;51.544;-3.276;2022-10-31T00:40:26;100794.07;;;11.59;57.60
74079;BME280;62437;51.544;-3.276;2022-10-31T00:42:51;100792.28;;;11.54;58.08
74079;BME280;62437;51.544;-3.276;2022-10-31T00:45:17;100791.20;;;11.89;57.65
74079;BME280;62437;51.544;-3.276;2022-10-31T00:47:42;100793.02;;;11.06;59.87
74079;BME280;62437;51.544;-3.276;2022-10-31T00:50:08;100793.27;;;11.39;59.26
74079;BME280;62437;51.544;-3.276;2022-10-31T00:52:34;100784.81;;;11.12;60.68
74079;BME280;62437;51.544;-3.276;2022-10-31T00:54:59;100782.16;;;11.74;59.05
74079;BME280;62437;51.544;-3.276;2022-10-31T00:57:24;100790.15;;;12.29;59.00
74079;BME280;62437;51.544;-3.276;2022-10-31T00:59:50;100784.75;;;12.04;58.72
74079;BME280;62437;51.544;-3.276;2022-10-31T01:02:16;100779.36;;;12.67;57.42
74079;BME280;62437;51.544;-3.276;2022-10-31T01:04:41;100785.07;;;12.28;58.13
74079;BME280;62437;51.544;-3.276;2022-10-31T01:07:07;100779.16;;;12.66;57.13
74079;BME280;62437;51.544;-3.276;2022-10-31T01:09:33;100780.69;;;13.18;56.03
74079;BME280;62437;51.544;-3.276;2022-10-31T01:11:58;100784.24;;;11.78;59.16
74079;BME280;62437;51.544;-3.276;2022-10-31T01:14:23;100782.43;;;12.33;57.58
74079;BME280;62437;51.544;-3.276;2022-10-31T01:16:49;100779.38;;;12.05;58.16
74079;BME280;62437;51.544;-3.276;2022-10-31T01:19:14;100773.24;;;12.65;56.76
74079;BME280;62437;51.544;-3.276;2022-10-31T01:21:40;100770.34;;;12.94;55.92
74079;BME280;62437;51.544;-3.276;2022-10-31T01:24:06;100767.91;;;12.80;56.09
74079;BME280;62437;51.544;-3.276;2022-10-31T01:26:32;100768.87;;;12.21;57.69
74079;BME280;62437;51.544;-3.276;2022-10-31T01:28:59;100766.43;;;12.81;56.04
74079;BME280;62437;51.544;-3.276;2022-10-31T01:31:24;100766.66;;;13.41;55.41
74079;BME280;62437;51.544;-3.276;2022-10-31T01:33:48;100770.23;;;13.76;54.63
74079;BME280;62437;51.544;-3.276;2022-10-31T01:36:16;100775.98;;;13.08;55.93
74079;BME280;62437;51.544;-3.276;2022-10-31T01:38:39;100776.38;;;12.98;56.48
74079;BME280;62437;51.544;-3.276;2022-10-31T01:41:04;100781.31;;;12.32;57.32
74079;BME280;62437;51.544;-3.276;2022-10-31T01:45:55;100777.46;;;12.43;57.89
74079;BME280;62437;51.544;-3.276;2022-10-31T01:48:24;100776.20;;;12.32;58.48
74079;BME280;62437;51.544;-3.276;2022-10-31T01:50:48;100779.51;;;13.20;56.51
74079;BME280;62437;51.544;-3.276;2022-10-31T01:53:12;100781.73;;;13.46;55.71
74079;BME280;62437;51.544;-3.276;2022-10-31T01:55:40;100783.70;;;13.07;56.58
74079;BME280;62437;51.544;-3.276;2022-10-31T01:58:06;100780.24;;;12.83;57.26
74079;BME280;62437;51.544;-3.276;2022-10-31T02:00:29;100783.77;;;12.33;58.29
74079;BME280;62437;51.544;-3.276;2022-10-31T02:02:54;100780.10;;;12.66;58.25
74079;BME280;62437;51.544;-3.276;2022-10-31T02:05:22;100775.92;;;12.63;57.88
74079;BME280;62437;51.544;-3.276;2022-10-31T02:07:51;100774.89;;;13.29;56.64
74079;BME280;62437;51.544;-3.276;2022-10-31T02:10:11;100769.52;;;13.27;56.69
74079;BME280;62437;51.544;-3.276;2022-10-31T02:12:37;100773.30;;;13.95;56.29
74079;BME280;62437;51.544;-3.276;2022-10-31T02:15:04;100770.13;;;13.21;56.33
74079;BME280;62437;51.544;-3.276;2022-10-31T02:17:29;100764.91;;;12.45;58.59
74079;BME280;62437;51.544;-3.276;2022-10-31T02:20:00;100762.64;;;12.59;57.74
74079;BME280;62437;51.544;-3.276;2022-10-31T02:22:25;100765.15;;;12.64;58.05
74079;BME280;62437;51.544;-3.276;2022-10-31T02:24:51;100764.36;;;13.06;57.23
74079;BME280;62437;51.544;-3.276;2022-10-31T02:27:22;100766.13;;;12.29;58.32
74079;BME280;62437;51.544;-3.276;2022-10-31T02:29:52;100766.57;;;12.54;58.58
74079;BME280;62437;51.544;-3.276;2022-10-31T02:32:07;100768.67;;;12.51;58.53
74079;BME280;62437;51.544;-3.276;2022-10-31T02:34:32;100767.39;;;12.52;58.55
74079;BME280;62437;51.544;-3.276;2022-10-31T02:36:56;100774.00;;;12.46;58.62
74079;BME280;62437;51.544;-3.276;2022-10-31T02:39:23;100767.18;;;12.69;58.38
74079;BME280;62437;51.544;-3.276;2022-10-31T02:41:48;100765.94;;;12.99;57.55
74079;BME280;62437;51.544;-3.276;2022-10-31T02:44:13;100760.15;;;12.29;58.96
74079;BME280;62437;51.544;-3.276;2022-10-31T02:46:38;100760.23;;;12.06;59.63
74079;BME280;62437;51.544;-3.276;2022-10-31T02:49:05;100755.46;;;12.45;60.00
74079;BME280;62437;51.544;-3.276;2022-10-31T02:51:25;100742.49;;;12.56;58.63
74079;BME280;62437;51.544;-3.276;2022-10-31T02:53:51;100732.73;;;12.90;57.15
74079;BME280;62437;51.544;-3.276;2022-10-31T02:56:18;100729.95;;;12.56;57.85
74079;BME280;62437;51.544;-3.276;2022-10-31T02:58:46;100732.58;;;11.71;59.21
74079;BME280;62437;51.544;-3.276;2022-10-31T03:03:38;100730.99;;;12.04;59.13
74079;BME280;62437;51.544;-3.276;2022-10-31T03:06:02;100730.17;;;12.04;59.06
74079;BME280;62437;51.544;-3.276;2022-10-31T03:08:32;100724.25;;;12.23;58.85
74079;BME280;62437;51.544;-3.276;2022-10-31T03:10:54;100718.32;;;12.40;58.10
74079;BME280;62437;51.544;-3.276;2022-10-31T03:13:21;100715.54;;;12.51;57.18
74079;BME280;62437;51.544;-3.276;2022-10-31T03:15:44;100718.03;;;11.89;57.62
74079;BME280;62437;51.544;-3.276;2022-10-31T03:18:10;100719.47;;;12.29;58.49
74079;BME280;62437;51.544;-3.276;2022-10-31T03:20:36;100717.62;;;11.56;59.45
74079;BME280;62437;51.544;-3.276;2022-10-31T03:23:00;100712.30;;;11.17;60.77
74079;BME280;62437;51.544;-3.276;2022-10-31T03:25:26;100708.32;;;11.74;59.68
74079;BME280;62437;51.544;-3.276;2022-10-31T03:27:51;100707.17;;;11.79;58.57
74079;BME280;62437;51.544;-3.276;2022-10-31T03:30:16;100706.89;;;11.71;58.26
74079;BME280;62437;51.544;-3.276;2022-10-31T03:32:44;100701.30;;;11.88;57.78
74079;BME280;62437;51.544;-3.276;2022-10-31T03:35:08;100704.14;;;12.02;58.05
74079;BME280;62437;51.544;-3.276;2022-10-31T03:37:34;100700.83;;;11.18;60.13
74079;BME280;62437;51.544;-3.276;2022-10-31T03:40:00;100704.21;;;11.45;60.67
74079;BME280;62437;51.544;-3.276;2022-10-31T03:42:27;100704.12;;;11.59;60.82
74079;BME280;62437;51.544;-3.276;2022-10-31T03:44:55;100697.52;;;11.99;60.06
74079;BME280;62437;51.544;-3.276;2022-10-31T03:47:15;100698.56;;;11.83;59.64
74079;BME280;62437;51.544;-3.276;2022-10-31T03:49:40;100702.78;;;11.66;59.30
74079;BME280;62437;51.544;-3.276;2022-10-31T03:52:13;100702.68;;;11.65;60.30
74079;BME280;62437;51.544;-3.276;2022-10-31T03:54:35;100699.63;;;12.33;58.84
74079;BME280;62437;51.544;-3.276;2022-10-31T03:56:59;100705.55;;;11.82;59.56
74079;BME280;62437;51.544;-3.276;2022-10-31T03:59:26;100700.69;;;11.46;60.49
74079;BME280;62437;51.544;-3.276;2022-10-31T04:01:52;100696.51;;;11.76;59.23
74079;BME280;62437;51.544;-3.276;2022-10-31T04:04:14;100693.53;;;12.07;58.29
74079;BME280;62437;51.544;-3.276;2022-10-31T04:06:41;100698.20;;;11.76;59.41
74079;BME280;62437;51.544;-3.276;2022-10-31T04:09:06;100693.02;;;11.96;58.24
74079;BME280;62437;51.544;-3.276;2022-10-31T04:11:34;100692.57;;;11.97;57.96
74079;BME280;62437;51.544;-3.276;2022-10-31T04:13:57;100691.79;;;11.85;58.34
74079;BME280;62437;51.544;-3.276;2022-10-31T04:16:23;100700.08;;;11.81;58.87
74079;BME280;62437;51.544;-3.276;2022-10-31T04:18:47;100697.83;;;11.89;59.39
74079;BME280;62437;51.544;-3.276;2022-10-31T04:21:13;100692.71;;;11.35;60.37
74079;BME280;62437;51.544;-3.276;2022-10-31T04:23:39;100695.93;;;11.14;61.33
74079;BME280;62437;51.544;-3.276;2022-10-31T04:26:04;100694.36;;;11.66;60.81
74079;BME280;62437;51.544;-3.276;2022-10-31T04:28:30;100693.51;;;11.59;60.99
74079;BME280;62437;51.544;-3.276;2022-10-31T04:30:55;100684.97;;;12.28;59.50
74079;BME280;62437;51.544;-3.276;2022-10-31T04:33:21;100684.58;;;11.68;59.34
74079;BME280;62437;51.544;-3.276;2022-10-31T04:35:47;100688.13;;;11.80;60.17
74079;BME280;62437;51.544;-3.276;2022-10-31T04:38:12;100682.35;;;11.58;60.00
74079;BME280;62437;51.544;-3.276;2022-10-31T04:40:38;100685.22;;;11.37;59.89
74079;BME280;62437;51.544;-3.276;2022-10-31T04:43:03;100680.03;;;11.79;59.89
74079;BME280;62437;51.544;-3.276;2022-10-31T04:45:29;100681.74;;;11.89;58.81
74079;BME280;62437;51.544;-3.276;2022-10-31T04:47:55;100678.37;;;12.34;57.43
74079;BME280;62437;51.544;-3.276;2022-10-31T04:50:20;100682.66;;;12.48;58.13
74079;BME280;62437;51.544;-3.276;2022-10-31T04:52:46;100677.91;;;12.36;58.40
74079;BME280;62437;51.544;-3.276;2022-10-31T04:55:12;100685.22;;;11.89;59.23
74079;BME280;62437;51.544;-3.276;2022-10-31T04:57:41;100684.70;;;12.04;59.74
74079;BME280;62437;51.544;-3.276;2022-10-31T05:00:02;100680.99;;;11.45;61.08
74079;BME280;62437;51.544;-3.276;2022-10-31T05:02:28;100676.95;;;10.81;63.01
74079;BME280;62437;51.544;-3.276;2022-10-31T05:04:53;100670.42;;;11.66;61.07
74079;BME280;62437;51.544;-3.276;2022-10-31T05:07:19;100666.15;;;11.49;60.47
74079;BME280;62437;51.544;-3.276;2022-10-31T05:09:44;100665.59;;;11.86;59.60
74079;BME280;62437;51.544;-3.276;2022-10-31T05:12:10;100663.36;;;11.94;60.04
74079;BME280;62437;51.544;-3.276;2022-10-31T05:14:36;100664.08;;;11.48;60.85
74079;BME280;62437;51.544;-3.276;2022-10-31T05:17:01;100654.05;;;12.23;59.60
74079;BME280;62437;51.544;-3.276;2022-10-31T05:19:26;100642.40;;;11.89;59.54
74079;BME280;62437;51.544;-3.276;2022-10-31T05:21:52;100638.85;;;12.07;59.38
74079;BME280;62437;51.544;-3.276;2022-10-31T05:24:18;100641.10;;;11.52;60.70
74079;BME280;62437;51.544;-3.276;2022-10-31T05:26:43;100637.13;;;12.09;59.20
74079;BME280;62437;51.544;-3.276;2022-10-31T05:29:09;100643.25;;;12.33;58.36
74079;BME280;62437;51.544;-3.276;2022-10-31T05:31:34;100640.53;;;11.90;58.60
74079;BME280;62437;51.544;-3.276;2022-10-31T05:34:00;100638.39;;;12.33;57.98
74079;BME280;62437;51.544;-3.276;2022-10-31T05:36:26;100638.12;;;11.61;59.04
74079;BME280;62437;51.544;-3.276;2022-10-31T05:38:51;100637.45;;;12.10;58.31
74079;BME280;62437;51.544;-3.276;2022-10-31T05:41:17;100639.96;;;12.45;57.88
74079;BME280;62437;51.544;-3.276;2022-10-31T05:43:42;100642.23;;;12.57;58.15
74079;BME280;62437;51.544;-3.276;2022-10-31T05:46:08;100642.57;;;12.60;57.74
74079;BME280;62437;51.544;-3.276;2022-10-31T05:48:34;100641.53;;;12.53;58.09
74079;BME280;62437;51.544;-3.276;2022-10-31T05:50:59;100640.44;;;12.87;57.41
74079;BME280;62437;51.544;-3.276;2022-10-31T05:53:24;100643.43;;;12.16;59.03
74079;BME280;62437;51.544;-3.276;2022-10-31T05:55:50;100639.31;;;12.47;58.86
74079;BME280;62437;51.544;-3.276;2022-10-31T05:58:16;100638.36;;;12.46;58.34
74079;BME280;62437;51.544;-3.276;2022-10-31T06:00:41;100635.18;;;12.58;58.18
74079;BME280;62437;51.544;-3.276;2022-10-31T06:03:09;100636.89;;;12.46;57.77
74079;BME280;62437;51.544;-3.276;2022-10-31T06:05:33;100634.49;;;12.53;58.49
74079;BME280;62437;51.544;-3.276;2022-10-31T06:07:59;100629.32;;;12.55;57.82
74079;BME280;62437;51.544;-3.276;2022-10-31T06:10:24;100625.58;;;12.56;58.34
74079;BME280;62437;51.544;-3.276;2022-10-31T06:12:50;100624.49;;;12.54;58.11
74079;BME280;62437;51.544;-3.276;2022-10-31T06:15:16;100624.24;;;12.31;58.72
74079;BME280;62437;51.544;-3.276;2022-10-31T06:17:41;100624.64;;;12.08;59.68
74079;BME280;62437;51.544;-3.276;2022-10-31T06:20:07;100621.07;;;12.37;58.80
74079;BME280;62437;51.544;-3.276;2022-10-31T06:22:32;100617.33;;;12.71;58.12
74079;BME280;62437;51.544;-3.276;2022-10-31T06:24:58;100623.34;;;12.76;56.99
74079;BME280;62437;51.544;-3.276;2022-10-31T06:27:23;100617.94;;;12.42;57.68
74079;BME280;62437;51.544;-3.276;2022-10-31T06:29:49;100615.57;;;12.02;59.13
74079;BME280;62437;51.544;-3.276;2022-10-31T06:32:15;100617.68;;;12.61;59.14
74079;BME280;62437;51.544;-3.276;2022-10-31T06:34:40;100610.81;;;12.45;58.08
74079;BME280;62437;51.544;-3.276;2022-10-31T06:37:06;100610.39;;;11.91;59.09
74079;BME280;62437;51.544;-3.276;2022-10-31T06:39:31;100609.41;;;12.26;57.84
74079;BME280;62437;51.544;-3.276;2022-10-31T06:41:57;100615.12;;;11.87;58.98
74079;BME280;62437;51.544;-3.276;2022-10-31T06:44:22;100622.20;;;12.08;59.08
74079;BME280;62437;51.544;-3.276;2022-10-31T06:46:48;100620.81;;;11.93;59.73
74079;BME280;62437;51.544;-3.276;2022-10-31T06:49:14;100620.72;;;11.84;59.84
74079;BME280;62437;51.544;-3.276;2022-10-31T06:51:39;100613.40;;;11.42;60.75
74079;BME280;62437;51.544;-3.276;2022-10-31T06:54:05;100618.75;;;11.80;59.57
74079;BME280;62437;51.544;-3.276;2022-10-31T06:56:30;100618.61;;;11.96;59.59
74079;BME280;62437;51.544;-3.276;2022-10-31T06:58:56;100613.80;;;11.79;60.83
74079;BME280;62437;51.544;-3.276;2022-10-31T07:01:21;100613.04;;;11.87;59.60
74079;BME280;62437;51.544;-3.276;2022-10-31T07:03:47;100609.43;;;12.23;59.48
74079;BME280;62437;51.544;-3.276;2022-10-31T07:06:13;100610.15;;;11.80;60.13
74079;BME280;62437;51.544;-3.276;2022-10-31T07:08:39;100608.03;;;12.23;59.59
74079;BME280;62437;51.544;-3.276;2022-10-31T07:11:04;100612.77;;;12.36;58.68
74079;BME280;62437;51.544;-3.276;2022-10-31T07:13:30;100612.92;;;11.94;59.68
74079;BME280;62437;51.544;-3.276;2022-10-31T07:16:02;100606.49;;;12.07;59.68
74079;BME280;62437;51.544;-3.276;2022-10-31T07:18:21;100607.31;;;11.93;60.12
74079;BME280;62437;51.544;-3.276;2022-10-31T07:20:47;100604.90;;;12.51;58.24
74079;BME280;62437;51.544;-3.276;2022-10-31T07:23:13;100609.02;;;12.91;56.91
74079;BME280;62437;51.544;-3.276;2022-10-31T07:25:39;100611.42;;;12.81;57.58
74079;BME280;62437;51.544;-3.276;2022-10-31T07:28:04;100609.09;;;12.87;57.11
74079;BME280;62437;51.544;-3.276;2022-10-31T07:30:29;100615.73;;;12.99;57.49
74079;BME280;62437;51.544;-3.276;2022-10-31T07:32:55;100616.44;;;12.54;58.55
74079;BME280;62437;51.544;-3.276;2022-10-31T07:35:21;100617.73;;;12.72;57.44
74079;BME280;62437;51.544;-3.276;2022-10-31T07:37:46;100615.69;;;12.87;57.18
74079;BME280;62437;51.544;-3.276;2022-10-31T07:40:12;100611.75;;;13.32;56.08
74079;BME280;62437;51.544;-3.276;2022-10-31T07:42:37;100613.96;;;13.13;57.21
74079;BME280;62437;51.544;-3.276;2022-10-31T07:45:02;100620.13;;;12.92;58.33
74079;BME280;62437;51.544;-3.276;2022-10-31T07:47:27;100621.30;;;12.79;58.44
74079;BME280;62437;51.544;-3.276;2022-10-31T07:49:53;100622.21;;;11.79;60.87
74079;BME280;62437;51.544;-3.276;2022-10-31T07:52:18;100623.99;;;11.70;61.22
74079;BME280;62437;51.544;-3.276;2022-10-31T07:54:44;100623.56;;;12.76;58.71
74079;BME280;62437;51.544;-3.276;2022-10-31T07:57:09;100623.38;;;12.66;59.02
74079;BME280;62437;51.544;-3.276;2022-10-31T07:59:35;100616.98;;;12.92;57.74
74079;BME280;62437;51.544;-3.276;2022-10-31T08:02:00;100613.65;;;13.61;56.25
74079;BME280;62437;51.544;-3.276;2022-10-31T08:04:26;100615.40;;;13.44;56.40
74079;BME280;62437;51.544;-3.276;2022-10-31T08:06:51;100614.26;;;13.27;56.89
74079;BME280;62437;51.544;-3.276;2022-10-31T08:09:17;100611.10;;;12.73;58.06
74079;BME280;62437;51.544;-3.276;2022-10-31T08:11:42;100607.12;;;13.35;56.58
74079;BME280;62437;51.544;-3.276;2022-10-31T08:14:08;100605.83;;;13.71;56.79
74079;BME280;62437;51.544;-3.276;2022-10-31T08:16:34;100609.68;;;13.69;56.04
74079;BME280;62437;51.544;-3.276;2022-10-31T08:18:59;100610.42;;;12.36;59.80
74079;BME280;62437;51.544;-3.276;2022-10-31T08:21:25;100610.90;;;12.11;60.49
74079;BME280;62437;51.544;-3.276;2022-10-31T08:23:50;100606.61;;;12.36;59.85
74079;BME280;62437;51.544;-3.276;2022-10-31T08:26:16;100602.66;;;12.68;59.41
74079;BME280;62437;51.544;-3.276;2022-10-31T08:28:42;100601.69;;;12.92;58.57
74079;BME280;62437;51.544;-3.276;2022-10-31T08:31:07;100601.16;;;12.47;58.98
74079;BME280;62437;51.544;-3.276;2022-10-31T08:33:32;100601.02;;;12.84;58.71
74079;BME280;62437;51.544;-3.276;2022-10-31T08:35:58;100598.17;;;13.01;58.42
74079;BME280;62437;51.544;-3.276;2022-10-31T08:38:24;100596.55;;;12.21;60.29
74079;BME280;62437;51.544;-3.276;2022-10-31T08:40:50;100590.98;;;12.32;60.30
74079;BME280;62437;51.544;-3.276;2022-10-31T08:43:16;100590.53;;;13.15;58.35
74079;BME280;62437;51.544;-3.276;2022-10-31T08:45:41;100592.06;;;13.10;57.84
74079;BME280;62437;51.544;-3.276;2022-10-31T08:48:09;100588.99;;;12.36;59.32
74079;BME280;62437;51.544;-3.276;2022-10-31T08:50:33;100589.82;;;13.29;57.64
74079;BME280;62437;51.544;-3.276;2022-10-31T08:53:02;100581.86;;;13.62;56.66
74079;BME280;62437;51.544;-3.276;2022-10-31T08:55:22;100576.06;;;13.85;57.06
74079;BME280;62437;51.544;-3.276;2022-10-31T08:57:48;100577.45;;;13.52;57.46
74079;BME280;62437;51.544;-3.276;2022-10-31T09:00:14;100577.75;;;12.50;60.22
74079;BME280;62437;51.544;-3.276;2022-10-31T09:02:39;100576.47;;;12.71;59.92
74079;BME280;62437;51.544;-3.276;2022-10-31T09:05:05;100575.12;;;11.60;62.52
74079;BME280;62437;51.544;-3.276;2022-10-31T09:07:30;100575.04;;;11.89;61.90
74079;BME280;62437;51.544;-3.276;2022-10-31T09:09:55;100580.44;;;12.28;61.00
74079;BME280;62437;51.544;-3.276;2022-10-31T09:12:20;100580.61;;;12.13;62.47
74079;BME280;62437;51.544;-3.276;2022-10-31T09:14:46;100574.35;;;12.27;61.12
74079;BME280;62437;51.544;-3.276;2022-10-31T09:17:12;100573.12;;;12.34;61.00
74079;BME280;62437;51.544;-3.276;2022-10-31T09:19:37;100569.32;;;12.80;59.81
74079;BME280;62437;51.544;-3.276;2022-10-31T09:22:03;100568.58;;;12.61;60.45
74079;BME280;62437;51.544;-3.276;2022-10-31T09:24:28;100559.45;;;12.35;60.79
74079;BME280;62437;51.544;-3.276;2022-10-31T09:26:54;100557.35;;;12.36;60.80
74079;BME280;62437;51.544;-3.276;2022-10-31T09:29:20;100556.12;;;11.37;64.17
74079;BME280;62437;51.544;-3.276;2022-10-31T09:31:45;100551.09;;;11.53;63.89
74079;BME280;62437;51.544;-3.276;2022-10-31T09:34:11;100547.79;;;11.59;64.37
74079;BME280;62437;51.544;-3.276;2022-10-31T09:36:37;100539.44;;;12.46;61.10
74079;BME280;62437;51.544;-3.276;2022-10-31T09:39:03;100534.78;;;12.72;59.87
74079;BME280;62437;51.544;-3.276;2022-10-31T09:41:37;100524.01;;;13.14;59.64
74079;BME280;62437;51.544;-3.276;2022-10-31T09:44:00;100525.46;;;13.57;58.34
74079;BME280;62437;51.544;-3.276;2022-10-31T09:46:26;100521.48;;;13.12;59.35
74079;BME280;62437;51.544;-3.276;2022-10-31T09:48:55;100518.86;;;12.26;61.34
74079;BME280;62437;51.544;-3.276;2022-10-31T09:51:12;100513.53;;;12.32;61.85
74079;BME280;62437;51.544;-3.276;2022-10-31T09:53:41;100509.01;;;12.21;61.89
74079;BME280;62437;51.544;-3.276;2022-10-31T09:56:02;100509.04;;;11.60;64.50
74079;BME280;62437;51.544;-3.276;2022-10-31T09:58:28;100505.39;;;11.86;64.01
74079;BME280;62437;51.544;-3.276;2022-10-31T10:00:53;100499.26;;;12.63;61.38
74079;BME280;62437;51.544;-3.276;2022-10-31T10:03:28;100495.46;;;12.22;62.03
74079;BME280;62437;51.544;-3.276;2022-10-31T10:05:49;100486.82;;;12.49;62.17
74079;BME280;62437;51.544;-3.276;2022-10-31T10:08:14;100487.04;;;11.85;63.43
74079;BME280;62437;51.544;-3.276;2022-10-31T10:10:44;100488.06;;;12.43;61.74
74079;BME280;62437;51.544;-3.276;2022-10-31T10:13:17;100485.63;;;12.77;60.39
74079;BME280;62437;51.544;-3.276;2022-10-31T10:15:39;100483.05;;;12.41;61.83
74079;BME280;62437;51.544;-3.276;2022-10-31T10:17:57;100477.03;;;12.14;63.36
74079;BME280;62437;51.544;-3.276;2022-10-31T10:20:25;100475.58;;;11.98;63.03
74079;BME280;62437;51.544;-3.276;2022-10-31T10:22:47;100475.32;;;12.17;63.74
74079;BME280;62437;51.544;-3.276;2022-10-31T10:25:15;100471.99;;;11.90;63.90
74079;BME280;62437;51.544;-3.276;2022-10-31T10:27:46;100473.24;;;12.13;62.98
74079;BME280;62437;51.544;-3.276;2022-10-31T10:30:03;100476.56;;;12.32;62.81
74079;BME280;62437;51.544;-3.276;2022-10-31T10:32:26;100468.29;;;12.72;61.28
74079;BME280;62437;51.544;-3.276;2022-10-31T10:34:51;100472.66;;;13.24;60.39
74079;BME280;62437;51.544;-3.276;2022-10-31T10:37:22;100479.76;;;12.19;62.89
74079;BME280;62437;51.544;-3.276;2022-10-31T10:39:43;100480.16;;;12.86;61.25
74079;BME280;62437;51.544;-3.276;2022-10-31T10:42:10;100478.13;;;12.81;60.87
74079;BME280;62437;51.544;-3.276;2022-10-31T10:44:31;100479.39;;;12.84;61.67
74079;BME280;62437;51.544;-3.276;2022-10-31T10:47:00;100478.73;;;13.42;59.48
74079;BME280;62437;51.544;-3.276;2022-10-31T10:49:29;100478.29;;;12.90;59.92
74079;BME280;62437;51.544;-3.276;2022-10-31T10:51:54;100477.11;;;12.27;62.73
74079;BME280;62437;51.544;-3.276;2022-10-31T10:54:33;100468.46;;;12.95;61.23
74079;BME280;62437;51.544;-3.276;2022-10-31T10:56:47;100462.11;;;13.13;59.88
74079;BME280;62437;51.544;-3.276;2022-10-31T10:59:09;100466.58;;;13.94;57.60
74079;BME280;62437;51.544;-3.276;2022-10-31T11:01:30;100465.60;;;13.05;61.11
74079;BME280;62437;51.544;-3.276;2022-10-31T11:03:55;100460.54;;;12.92;62.25
74079;BME280;62437;51.544;-3.276;2022-10-31T11:06:22;100455.76;;;12.61;61.93
74079;BME280;62437;51.544;-3.276;2022-10-31T11:08:46;100451.19;;;12.52;62.39
74079;BME280;62437;51.544;-3.276;2022-10-31T11:13:41;100446.42;;;12.73;61.65
74079;BME280;62437;51.544;-3.276;2022-10-31T11:16:05;100437.81;;;12.52;62.33
74079;BME280;62437;51.544;-3.276;2022-10-31T11:18:31;100428.58;;;12.42;62.85
74079;BME280;62437;51.544;-3.276;2022-10-31T11:20:56;100423.47;;;11.77;64.63
74079;BME280;62437;51.544;-3.276;2022-10-31T11:23:22;100420.98;;;12.05;63.68
74079;BME280;62437;51.544;-3.276;2022-10-31T11:25:54;100426.74;;;11.68;66.00
74079;BME280;62437;51.544;-3.276;2022-10-31T11:28:11;100422.37;;;12.27;63.50
74079;BME280;62437;51.544;-3.276;2022-10-31T11:30:42;100415.64;;;12.72;62.56
74079;BME280;62437;51.544;-3.276;2022-10-31T11:33:03;100406.23;;;12.18;63.72
74079;BME280;62437;51.544;-3.276;2022-10-31T11:35:29;100399.87;;;13.23;61.35
74079;BME280;62437;51.544;-3.276;2022-10-31T11:38:04;100395.80;;;13.45;59.64
74079;BME280;62437;51.544;-3.276;2022-10-31T11:40:21;100386.25;;;13.89;59.16
74079;BME280;62437;51.544;-3.276;2022-10-31T11:42:43;100382.68;;;12.88;62.25
74079;BME280;62437;51.544;-3.276;2022-10-31T11:45:16;100375.67;;;12.75;62.98
74079;BME280;62437;51.544;-3.276;2022-10-31T11:47:33;100368.68;;;13.09;61.74
74079;BME280;62437;51.544;-3.276;2022-10-31T11:50:08;100366.51;;;13.32;61.44
74079;BME280;62437;51.544;-3.276;2022-10-31T11:52:25;100364.46;;;12.96;62.21
74079;BME280;62437;51.544;-3.276;2022-10-31T11:54:52;100361.63;;;13.96;59.84
74079;BME280;62437;51.544;-3.276;2022-10-31T11:57:25;100361.21;;;12.66;61.87
74079;BME280;62437;51.544;-3.276;2022-10-31T12:02:14;100361.83;;;13.06;61.34
74079;BME280;62437;51.544;-3.276;2022-10-31T12:04:38;100358.60;;;13.15;62.05
74079;BME280;62437;51.544;-3.276;2022-10-31T12:06:57;100348.18;;;13.94;59.90
74079;BME280;62437;51.544;-3.276;2022-10-31T12:09:24;100349.54;;;13.19;60.57
74079;BME280;62437;51.544;-3.276;2022-10-31T12:12:03;100341.14;;;14.07;58.99
74079;BME280;62437;51.544;-3.276;2022-10-31T12:14:27;100342.53;;;12.79;61.30
74079;BME280;62437;51.544;-3.276;2022-10-31T12:16:46;100335.80;;;12.89;63.04
74079;BME280;62437;51.544;-3.276;2022-10-31T12:19:09;100331.95;;;13.76;60.40
74079;BME280;62437;51.544;-3.276;2022-10-31T12:21:45;100324.22;;;13.83;59.32
74079;BME280;62437;51.544;-3.276;2022-10-31T12:24:06;100322.34;;;13.25;61.11
74079;BME280;62437;51.544;-3.276;2022-10-31T12:26:26;100315.73;;;12.99;62.65
74079;BME280;62437;51.544;-3.276;2022-10-31T12:29:03;100316.02;;;12.99;62.89
74079;BME280;62437;51.544;-3.276;2022-10-31T12:31:26;100300.82;;;12.92;62.80
74079;BME280;62437;51.544;-3.276;2022-10-31T12:33:51;100290.54;;;13.34;62.13
74079;BME280;62437;51.544;-3.276;2022-10-31T12:36:14;100288.17;;;12.54;63.52
74079;BME280;62437;51.544;-3.276;2022-10-31T12:38:44;100291.43;;;13.00;63.01
74079;BME280;62437;51.544;-3.276;2022-10-31T12:41:12;100283.70;;;12.95;63.54